• Join FlightAware (Why Join?)
  • Login
  • US Flag 
07:14AM EST


 

Airport Tracker/Info


-or-


 

Live Flight TrackerFlight Track Log ✈ UAL5911 ✈ 22-Apr-2013 ✈ KPIA - KORD

Flight Track Log - Related Links

Times and Time Zones

All times are in EDT time to prevent confusion due to time zone crossing. See the UAL5911 flight status page for this flight to view local times or setup timezone preferences in your user account.

Time Position Orientation Groundspeed Altitude Reporting Facility
EDT Latitude Longitude Course Direction KTS MPH feet Rate Location/Type
03:53PM 40.6717 -89.7564 303° West 253 291 4,800  Level Chicago Center
03:54PM 41.1310 -89.5865 North  Level FlightAware Approximate
03:54PM 40.7450 -89.7569 360° North 269 310 7,000  Level Chicago Center
03:55PM 41.1792 -89.5104 62° Northeast  Level FlightAware Approximate
03:55PM 40.8244 -89.7597 358° North 287 330 10,100  Level Chicago Center
03:56PM 41.2157 -89.4139 63° Northeast  Level FlightAware Approximate
03:56PM 40.9133 -89.7428 North 338 389 11,000  Level Chicago Center
03:57PM 41.2544 -89.3176 60° Northeast  Level FlightAware Approximate
03:57PM 41.0064 -89.6831 26° Northeast 371 427 12,300  Level Chicago Center
03:58PM 41.1239 -89.6103 25° Northeast 385 443 14,100 1,260 Climbing Chicago Center
03:59PM 41.1964 -89.5000 49° Northeast 403 464 15,000 420 Climbing Chicago Center
04:00PM 41.2503 -89.3669 62° Northeast 410 472 15,000 -180 Level Chicago Center
04:01PM 41.3042 -89.2322 62° Northeast 412 474 14,700 -780 Descending Chicago Center
04:02PM 41.3581 -89.0939 63° Northeast 401 461 13,500 -1,140 Descending Chicago Center
04:03PM 41.4097 -88.9669 61° Northeast 394 453 12,400 -1,080 Descending Chicago Center
04:04PM 41.4600 -88.8389 62° Northeast 391 450 11,300 -720 Descending Chicago Center
04:05PM 41.5083 -88.7189 62° Northeast 374 430 11,000 -180 Descending Chicago Center
04:06PM 41.5544 -88.6003 63° Northeast 302 348 11,000  Level Chicago Center
04:07PM 41.5933 -88.5014 62° Northeast 302 348 11,000 -540 Level Chicago Center
04:08PM 41.6414 -88.4092 55° Northeast 304 350 9,900 -1,500 Descending Chicago Center
04:09PM 41.7081 -88.3553 31° Northeast 296 341 8,000 -1,440 Descending Chicago Center
04:10PM 41.7847 -88.3275 15° North 286 329 7,000 -720 Descending Chicago Center
04:11PM 41.8522 -88.3156 North 252 290 6,600 -1,020 Descending Chicago Center
04:12PM 41.9314 -88.3250 355° North 241 277 5,000 -1,260 Descending Chicago Center
04:13PM 41.9661 -88.2644 52° Northeast 243 280 4,000 -540 Descending Chicago Center
04:14PM 41.9675 -88.1956 88° East 207 238 4,000 -300 Level Chicago Center
04:15PM 41.9681 -88.1253 89° East 194 223 3,500 -540 Descending Chicago Center